Ginga — JJ4054 — position and weather

sailwx.info

Track history (hours):
 
Tides and Currents Weather Stations Pressure Air Temp Water Temp Dewpoint Dewpoint Depression Visibility Wind Speed Wind Dir Waves Ship Positions

Ginga

Last reported at 2017-Jan-18 01:22 UTC. Time now 2017-Jan-18 10:15 UTC.
Position N 34°37' E 134°57'.

Length 28 m; draft 1.6 m.

Type: Other ship. MMSI: 431301704.

Date/timePositionNaut miles runAvg speedWind from/ knotsBaromVisibWave heightAir tempDewpointWater temp
2017-Jan-18 01:22N 34°37' E 134°57'8 9.4
2017-Jan-18 00:33N 34°35' E 135°06'1 0.1
2017-Jan-17 10:33N 34°35' E 135°05'6 4.7
2017-Jan-17 09:14N 34°36' E 134°57'3 4.3
2017-Jan-17 08:31N 34°36' E 135°01'1 0.5
2017-Jan-17 06:24N 34°37' E 135°01'4 3.7
2017-Jan-17 05:16N 34°36' E 134°56'913.1
2017-Jan-17 04:33N 34°38' E 135°07'2 2.2
2017-Jan-17 03:33N 34°39' E 135°09'3 0.1
2017-Jan-16 06:34N 34°36' E 135°08'6 5.6
2017-Jan-16 05:26N 34°38' E 135°00'2 0.4
2017-Jan-15 23:09N 34°38' E 135°03'4 5.3
2017-Jan-15 22:29N 34°37' E 134°59'7 8.0
2017-Jan-15 21:33N 34°35' E 135°07'3 2.7
2017-Jan-15 20:33N 34°34' E 135°10'9 8.7
2017-Jan-15 19:33N 34°38' E 135°01'7 6.9
2017-Jan-15 18:33N 34°34' E 135°08'5 4.8
2017-Jan-15 17:33N 34°39' E 135°09'3 0.3
2017-Jan-15 06:33N 34°36' E 135°09'12 6.0
2017-Jan-15 04:30N 34°25' E 135°03'1313.3
2017-Jan-15 03:33N 34°32' E 135°15'8 8.2
2017-Jan-15 02:34N 34°33' E 135°25'0 0.3
2017-Jan-15 01:33N 34°34' E 135°25'0 0.2
2017-Jan-15 00:32N 34°33' E 135°25'1111.7
2017-Jan-14 23:33N 34°34' E 135°11'1110.2
2017-Jan-14 22:28N 34°37' E 134°58'8 8.8
2017-Jan-14 21:32N 34°35' E 135°08'4 4.4
2017-Jan-14 20:33N 34°39' E 135°09'2 0.1
2017-Jan-13 02:33N 34°38' E 135°12'1211.9
2017-Jan-13 01:33N 34°33' E 135°25'7 7.0
2017-Jan-13 00:33N 34°33' E 135°17'1311.0
2017-Jan-12 23:25N 34°24' E 135°06'1511.5
2017-Jan-12 22:06N 34°10' E 134°60'18 1.3
2017-Jan-12 07:33N 34°27' E 135°08'1211.5
2017-Jan-12 06:32N 34°33' E 135°20'3 2.3
2017-Jan-12 05:12N 34°33' E 135°24'913.7
2017-Jan-12 04:34N 34°37' E 135°14'4 4.4
2017-Jan-12 03:33N 34°39' E 135°09'0 0.0
2017-Jan-11 22:09N 34°39' E 135°09'811.2
2017-Jan-11 21:27N 34°38' E 135°00'7 7.4
2017-Jan-11 20:33N 34°35' E 135°07'7 7.1
2017-Jan-11 19:32N 34°28' E 135°05'1613.0
2017-Jan-11 18:19N 34°13' E 134°60'16 9.3
2017-Jan-11 16:33N 34°29' E 135°03'1111.4
2017-Jan-11 15:33N 34°39' E 135°09'0 0.0
2017-Jan-11 07:22N 34°39' E 135°09'3 4.2
2017-Jan-11 06:33N 34°39' E 135°14'1010.4
2017-Jan-11 05:34N 34°33' E 135°24'4 4.2
2017-Jan-11 04:32N 34°34' E 135°19'0 0.4
2017-Jan-11 03:32N 34°34' E 135°19'1 1.5
2017-Jan-11 02:33N 34°33' E 135°18'1312.8
2017-Jan-11 01:33N 34°24' E 135°07'10 0.5
2017-Jan-10 07:33N 34°34' E 135°04'4 3.0
2017-Jan-10 06:17N 34°37' E 135°03'5 0.8
2017-Jan-09 23:33N 34°36' E 134°56'9 9.4
2017-Jan-09 22:33N 34°35' E 135°08'4 4.3
2017-Jan-09 21:33N 34°39' E 135°09'0 0.0
2017-Jan-09 01:05N 34°39' E 135°09'612.0
2017-Jan-09 00:33N 34°37' E 135°02'4 4.2
2017-Jan-08 23:33N 34°35' E 135°06'2 1.7
2017-Jan-08 22:33N 34°35' E 135°08'5 5.2
2017-Jan-08 21:33N 34°36' E 135°02'3 3.1
2017-Jan-08 20:33N 34°36' E 135°06'5 4.6
2017-Jan-08 19:33N 34°39' E 135°09'0 0.0
2017-Jan-08 08:30N 34°39' E 135°09'1414.7
2017-Jan-08 07:33N 34°26' E 135°04'3 2.1
2017-Jan-08 06:07N 34°23' E 135°02'814.8
2017-Jan-08 05:34N 34°28' E 135°10'1211.8
2017-Jan-08 04:31N 34°33' E 135°24'0 0.4
2017-Jan-08 03:33N 34°33' E 135°24'  
Track history (hours):
 
Tides and Currents Weather Stations Pressure Air Temp Water Temp Dewpoint Dewpoint Depression Visibility Wind Speed Wind Dir Waves Ship Positions

Ginga

Last reported at 2017-Jan-18 01:22 UTC. Time now 2017-Jan-18 10:15 UTC.
Position N 34°37' E 134°57'.

Length 28 m; draft 1.6 m.

Type: Other ship. MMSI: 431301704.

Date/timePositionNaut miles runAvg speedWind from/ knotsBaromVisibWave heightAir tempDewpointWater temp
2017-Jan-18 01:22N 34°37' E 134°57'8 9.4
2017-Jan-18 00:33N 34°35' E 135°06'1 0.1
2017-Jan-17 10:33N 34°35' E 135°05'6 4.7
2017-Jan-17 09:14N 34°36' E 134°57'3 4.3
2017-Jan-17 08:31N 34°36' E 135°01'1 0.5
2017-Jan-17 06:24N 34°37' E 135°01'4 3.7
2017-Jan-17 05:16N 34°36' E 134°56'913.1
2017-Jan-17 04:33N 34°38' E 135°07'2 2.2
2017-Jan-17 03:33N 34°39' E 135°09'3 0.1
2017-Jan-16 06:34N 34°36' E 135°08'6 5.6
2017-Jan-16 05:26N 34°38' E 135°00'2 0.4
2017-Jan-15 23:09N 34°38' E 135°03'4 5.3
2017-Jan-15 22:29N 34°37' E 134°59'7 8.0
2017-Jan-15 21:33N 34°35' E 135°07'3 2.7
2017-Jan-15 20:33N 34°34' E 135°10'9 8.7
2017-Jan-15 19:33N 34°38' E 135°01'7 6.9
2017-Jan-15 18:33N 34°34' E 135°08'5 4.8
2017-Jan-15 17:33N 34°39' E 135°09'3 0.3
2017-Jan-15 06:33N 34°36' E 135°09'12 6.0
2017-Jan-15 04:30N 34°25' E 135°03'1313.3
2017-Jan-15 03:33N 34°32' E 135°15'8 8.2
2017-Jan-15 02:34N 34°33' E 135°25'0 0.3
2017-Jan-15 01:33N 34°34' E 135°25'0 0.2
2017-Jan-15 00:32N 34°33' E 135°25'1111.7
2017-Jan-14 23:33N 34°34' E 135°11'1110.2
2017-Jan-14 22:28N 34°37' E 134°58'8 8.8
2017-Jan-14 21:32N 34°35' E 135°08'4 4.4
2017-Jan-14 20:33N 34°39' E 135°09'2 0.1
2017-Jan-13 02:33N 34°38' E 135°12'1211.9
2017-Jan-13 01:33N 34°33' E 135°25'7 7.0
2017-Jan-13 00:33N 34°33' E 135°17'1311.0
2017-Jan-12 23:25N 34°24' E 135°06'1511.5
2017-Jan-12 22:06N 34°10' E 134°60'18 1.3
2017-Jan-12 07:33N 34°27' E 135°08'1211.5
2017-Jan-12 06:32N 34°33' E 135°20'3 2.3
2017-Jan-12 05:12N 34°33' E 135°24'913.7
2017-Jan-12 04:34N 34°37' E 135°14'4 4.4
2017-Jan-12 03:33N 34°39' E 135°09'0 0.0
2017-Jan-11 22:09N 34°39' E 135°09'811.2
2017-Jan-11 21:27N 34°38' E 135°00'7 7.4
2017-Jan-11 20:33N 34°35' E 135°07'7 7.1
2017-Jan-11 19:32N 34°28' E 135°05'1613.0
2017-Jan-11 18:19N 34°13' E 134°60'16 9.3
2017-Jan-11 16:33N 34°29' E 135°03'1111.4
2017-Jan-11 15:33N 34°39' E 135°09'0 0.0
2017-Jan-11 07:22N 34°39' E 135°09'3 4.2
2017-Jan-11 06:33N 34°39' E 135°14'1010.4
2017-Jan-11 05:34N 34°33' E 135°24'4 4.2
2017-Jan-11 04:32N 34°34' E 135°19'0 0.4
2017-Jan-11 03:32N 34°34' E 135°19'1 1.5
2017-Jan-11 02:33N 34°33' E 135°18'1312.8
2017-Jan-11 01:33N 34°24' E 135°07'10 0.5
2017-Jan-10 07:33N 34°34' E 135°04'4 3.0
2017-Jan-10 06:17N 34°37' E 135°03'5 0.8
2017-Jan-09 23:33N 34°36' E 134°56'9 9.4
2017-Jan-09 22:33N 34°35' E 135°08'4 4.3
2017-Jan-09 21:33N 34°39' E 135°09'0 0.0
2017-Jan-09 01:05N 34°39' E 135°09'612.0
2017-Jan-09 00:33N 34°37' E 135°02'4 4.2
2017-Jan-08 23:33N 34°35' E 135°06'2 1.7
2017-Jan-08 22:33N 34°35' E 135°08'5 5.2
2017-Jan-08 21:33N 34°36' E 135°02'3 3.1
2017-Jan-08 20:33N 34°36' E 135°06'5 4.6
2017-Jan-08 19:33N 34°39' E 135°09'0 0.0
2017-Jan-08 08:30N 34°39' E 135°09'1414.7
2017-Jan-08 07:33N 34°26' E 135°04'3 2.1
2017-Jan-08 06:07N 34°23' E 135°02'814.8
2017-Jan-08 05:34N 34°28' E 135°10'1211.8
2017-Jan-08 04:31N 34°33' E 135°24'0 0.4
2017-Jan-08 03:33N 34°33' E 135°24'  

Dump ship's entire track history